Airfield :
LOGIN :

Register | Disclaimer

   EN    FR    IT 

 










Legend :    VFR   Marginal VFR   IFR   Intensive IFR   Very Intensive IFR
Visi :
Ceiling :
>= 8 km
>= 3000ft
5 to 8 km
1000 to 3000 ft
1500m to 5 km
500 to 1000 ft
800 to 1500m
200 to 500 ft
< 800m
< 200 ft
Symbols :   Thunderstorms  Fog  Heavy snow  Heavy precipitations  Wind > 20 kt
SIGMETs :     Misc.  Thunderstorms  Icing  Turbulence  Mountain Waves  Volcanic Ashes







- Airport Elevation : 330 ft
- IATA code : LVA
- Download approach charts


LFOV - Laval-Entrammes

CURRENT METAR :
  • 261230Z AUTO 09006KT CAVOK 11/07 Q1019

EXPIRED METARs :
  • 261200Z AUTO 09004KT CAVOK 10/06 Q1019
  • 261130Z AUTO 09006KT CAVOK 10/06 Q1019
  • 261100Z AUTO 09004KT CAVOK 09/06 Q1019
  • 261030Z AUTO 11003KT CAVOK 09/06 Q1019
  • 261000Z AUTO 15004KT 110V170 CAVOK 10/06 Q1019

TAF N/A
No reported NOTAMs for that airfield.
1 SIGMET reported for the Brest FIR (LFRR) :
 
Severe turbulence
LFRR SIGMET 2 VALID 261000/261400 LFPW
LFRR BREST FIR/UIR SEV TURB FCST WI N4630 W00130 - N4545 W00145 - N4630 W00600 - N4715 W00600 FL160/270 INTSF=



MET'MAP, your aeronautical weather chart ! - Copyright ORBIFLY December 2007 - Disclaimer

ORBIFLY MET'MAP TEAM :

Programming & Development : Alexandra Zaïnal
Concept & Development : Baudouin d'Aumeries
Co-Development & Prog : Marc-Olivier Méhu
Technical & hardware support : Manuel Goepfert

Contact : metmap@orbifly.com




SOURCES & CREDITS :

   NOAA